Corpus Christi — WDC2785 — position and weather

sailwx.info

Track history (hours):
 
Tides and Currents Weather Stations Pressure Air Temp Water Temp Dewpoint Dewpoint Depression Visibility Wind Speed Wind Dir Waves Ship Positions

Corpus Christi

Owner: Marquette Transportation Company Gulf-Inland, LLC, Jefferson, LA. More information available from US FCC via Universal Licensing System and Coast Guard Vessel Documentation Center.

Last reported at 2017-Sep-19 22:08 UTC. Time now 2017-Sep-21 10:45 UTC.
Position N 29°32' W 094°54'.

Length 134 m; draft 2.7 m.

Type: . MMSI: 366997690.

Date/timePositionNaut miles runAvg speedWind from/ knotsBaromVisibWave heightAir tempDewpointWater temp
2017-Sep-19 22:08N 29°32' W 094°54'1 5.8
2017-Sep-19 22:00N 29°32' W 094°54'3 5.9
2017-Sep-19 21:30N 29°35' W 094°56'3 5.5
2017-Sep-19 21:00N 29°37' W 094°58'3 5.8
2017-Sep-19 20:30N 29°40' W 094°59'3 5.4
2017-Sep-19 19:59N 29°42' W 095°01'3 4.8
2017-Sep-19 19:27N 29°44' W 095°03'3 5.3
2017-Sep-19 18:53N 29°46' W 095°05'0 0.8
2017-Sep-19 18:30N 29°46' W 095°05'0 0.0
2017-Sep-19 17:26N 29°46' W 095°05'2 0.2
2017-Sep-19 07:33N 29°45' W 095°04'0 2.9
2017-Sep-19 07:26N 29°45' W 095°04'3 5.5
2017-Sep-19 06:54N 29°43' W 095°01'2 5.8
2017-Sep-19 06:30N 29°42' W 094°59'4 6.3
2017-Sep-19 05:51N 29°38' W 094°58'2 6.7
2017-Sep-19 05:30N 29°36' W 094°56'3 6.8
2017-Sep-19 05:00N 29°33' W 094°54'1 0.0
2017-Sep-18 05:41N 29°32' W 094°54'1 6.1
2017-Sep-18 05:30N 29°33' W 094°55'3 6.1
2017-Sep-18 05:00N 29°36' W 094°57'3 6.1
2017-Sep-18 04:30N 29°38' W 094°58'3 6.9
2017-Sep-18 04:00N 29°42' W 094°59'3 5.9
2017-Sep-18 03:30N 29°44' W 095°02'2 0.2
2017-Sep-17 19:37N 29°44' W 095°04'1 6.2
2017-Sep-17 19:27N 29°44' W 095°03'2 5.1
2017-Sep-17 19:00N 29°42' W 095°01'3 5.5
2017-Sep-17 18:30N 29°40' W 094°59'3 6.4
2017-Sep-17 17:58N 29°37' W 094°57'3 6.5
2017-Sep-17 17:30N 29°34' W 094°56'4 0.1
2017-Sep-16 08:02N 29°31' W 094°53'1 5.4
2017-Sep-16 07:46N 29°32' W 094°54'2 5.7
2017-Sep-16 07:30N 29°33' W 094°55'3 5.8
2017-Sep-16 07:00N 29°36' W 094°57'3 6.4
2017-Sep-16 06:30N 29°39' W 094°58'3 6.6
2017-Sep-16 06:00N 29°42' W 094°60'3 6.0
2017-Sep-16 05:26N 29°44' W 095°03'3 1.3
2017-Sep-16 03:04N 29°46' W 095°05'1 0.3
2017-Sep-15 21:59N 29°45' W 095°04'3 5.3
2017-Sep-15 21:29N 29°44' W 095°02'2 4.8
2017-Sep-15 21:01N 29°42' W 094°60'3 5.4
2017-Sep-15 20:30N 29°40' W 094°58'3 6.3
2017-Sep-15 19:59N 29°37' W 094°57'3 6.5
2017-Sep-15 19:30N 29°34' W 094°55'4 0.1
2017-Sep-14 06:42N 29°31' W 094°53'1 5.8
2017-Sep-14 06:30N 29°32' W 094°54'3 6.3
2017-Sep-14 06:01N 29°34' W 094°56'3 6.6
2017-Sep-14 05:30N 29°37' W 094°58'3 6.8
2017-Sep-14 05:01N 29°41' W 094°59'3 6.3
2017-Sep-14 04:30N 29°43' W 095°01'3 5.7
2017-Sep-14 03:57N 29°45' W 095°04'3 4.4
2017-Sep-14 03:23N 29°48' W 095°04'0 0.0
2017-Sep-14 02:59N 29°48' W 095°04'2 2.4
2017-Sep-14 02:12N 29°46' W 095°05'1 0.2
2017-Sep-13 19:18N 29°45' W 095°04'3 5.3
2017-Sep-13 18:49N 29°44' W 095°02'2 5.1
2017-Sep-13 18:30N 29°42' W 095°01'3 5.1
2017-Sep-13 18:00N 29°41' W 094°59'3 5.3
2017-Sep-13 17:26N 29°38' W 094°58'3 6.0
2017-Sep-13 17:00N 29°35' W 094°56'3 5.7
2017-Sep-13 16:30N 29°33' W 094°55'  
2017-Sep-10 05:28N 29°32' W 094°54'3 6.4
2017-Sep-10 05:00N 29°35' W 094°56'3 6.2
2017-Sep-10 04:30N 29°38' W 094°58'3 6.5
2017-Sep-10 04:00N 29°41' W 094°59'3 6.0
2017-Sep-10 03:30N 29°43' W 095°01'3 5.7
2017-Sep-10 03:00N 29°45' W 095°04'  
Track history (hours):
 
Tides and Currents Weather Stations Pressure Air Temp Water Temp Dewpoint Dewpoint Depression Visibility Wind Speed Wind Dir Waves Ship Positions

Corpus Christi

Owner: Marquette Transportation Company Gulf-Inland, LLC, Jefferson, LA. More information available from US FCC via Universal Licensing System and Coast Guard Vessel Documentation Center.

Last reported at 2017-Sep-19 22:08 UTC. Time now 2017-Sep-21 10:45 UTC.
Position N 29°32' W 094°54'.

Length 134 m; draft 2.7 m.

Type: . MMSI: 366997690.

Date/timePositionNaut miles runAvg speedWind from/ knotsBaromVisibWave heightAir tempDewpointWater temp
2017-Sep-19 22:08N 29°32' W 094°54'1 5.8
2017-Sep-19 22:00N 29°32' W 094°54'3 5.9
2017-Sep-19 21:30N 29°35' W 094°56'3 5.5
2017-Sep-19 21:00N 29°37' W 094°58'3 5.8
2017-Sep-19 20:30N 29°40' W 094°59'3 5.4
2017-Sep-19 19:59N 29°42' W 095°01'3 4.8
2017-Sep-19 19:27N 29°44' W 095°03'3 5.3
2017-Sep-19 18:53N 29°46' W 095°05'0 0.8
2017-Sep-19 18:30N 29°46' W 095°05'0 0.0
2017-Sep-19 17:26N 29°46' W 095°05'2 0.2
2017-Sep-19 07:33N 29°45' W 095°04'0 2.9
2017-Sep-19 07:26N 29°45' W 095°04'3 5.5
2017-Sep-19 06:54N 29°43' W 095°01'2 5.8
2017-Sep-19 06:30N 29°42' W 094°59'4 6.3
2017-Sep-19 05:51N 29°38' W 094°58'2 6.7
2017-Sep-19 05:30N 29°36' W 094°56'3 6.8
2017-Sep-19 05:00N 29°33' W 094°54'1 0.0
2017-Sep-18 05:41N 29°32' W 094°54'1 6.1
2017-Sep-18 05:30N 29°33' W 094°55'3 6.1
2017-Sep-18 05:00N 29°36' W 094°57'3 6.1
2017-Sep-18 04:30N 29°38' W 094°58'3 6.9
2017-Sep-18 04:00N 29°42' W 094°59'3 5.9
2017-Sep-18 03:30N 29°44' W 095°02'2 0.2
2017-Sep-17 19:37N 29°44' W 095°04'1 6.2
2017-Sep-17 19:27N 29°44' W 095°03'2 5.1
2017-Sep-17 19:00N 29°42' W 095°01'3 5.5
2017-Sep-17 18:30N 29°40' W 094°59'3 6.4
2017-Sep-17 17:58N 29°37' W 094°57'3 6.5
2017-Sep-17 17:30N 29°34' W 094°56'4 0.1
2017-Sep-16 08:02N 29°31' W 094°53'1 5.4
2017-Sep-16 07:46N 29°32' W 094°54'2 5.7
2017-Sep-16 07:30N 29°33' W 094°55'3 5.8
2017-Sep-16 07:00N 29°36' W 094°57'3 6.4
2017-Sep-16 06:30N 29°39' W 094°58'3 6.6
2017-Sep-16 06:00N 29°42' W 094°60'3 6.0
2017-Sep-16 05:26N 29°44' W 095°03'3 1.3
2017-Sep-16 03:04N 29°46' W 095°05'1 0.3
2017-Sep-15 21:59N 29°45' W 095°04'3 5.3
2017-Sep-15 21:29N 29°44' W 095°02'2 4.8
2017-Sep-15 21:01N 29°42' W 094°60'3 5.4
2017-Sep-15 20:30N 29°40' W 094°58'3 6.3
2017-Sep-15 19:59N 29°37' W 094°57'3 6.5
2017-Sep-15 19:30N 29°34' W 094°55'4 0.1
2017-Sep-14 06:42N 29°31' W 094°53'1 5.8
2017-Sep-14 06:30N 29°32' W 094°54'3 6.3
2017-Sep-14 06:01N 29°34' W 094°56'3 6.6
2017-Sep-14 05:30N 29°37' W 094°58'3 6.8
2017-Sep-14 05:01N 29°41' W 094°59'3 6.3
2017-Sep-14 04:30N 29°43' W 095°01'3 5.7
2017-Sep-14 03:57N 29°45' W 095°04'3 4.4
2017-Sep-14 03:23N 29°48' W 095°04'0 0.0
2017-Sep-14 02:59N 29°48' W 095°04'2 2.4
2017-Sep-14 02:12N 29°46' W 095°05'1 0.2
2017-Sep-13 19:18N 29°45' W 095°04'3 5.3
2017-Sep-13 18:49N 29°44' W 095°02'2 5.1
2017-Sep-13 18:30N 29°42' W 095°01'3 5.1
2017-Sep-13 18:00N 29°41' W 094°59'3 5.3
2017-Sep-13 17:26N 29°38' W 094°58'3 6.0
2017-Sep-13 17:00N 29°35' W 094°56'3 5.7
2017-Sep-13 16:30N 29°33' W 094°55'  
2017-Sep-10 05:28N 29°32' W 094°54'3 6.4
2017-Sep-10 05:00N 29°35' W 094°56'3 6.2
2017-Sep-10 04:30N 29°38' W 094°58'3 6.5
2017-Sep-10 04:00N 29°41' W 094°59'3 6.0
2017-Sep-10 03:30N 29°43' W 095°01'3 5.7
2017-Sep-10 03:00N 29°45' W 095°04'  

Dump ship's entire track history